createdAt,value
2022-12-04T14:55:55.588Z,50.852619
2022-12-04T14:56:55.645Z,50.852615
2022-12-04T14:57:55.578Z,50.852753
2022-12-04T14:58:55.588Z,50.852753
2022-12-04T14:59:55.552Z,50.852848
2022-12-04T15:00:55.576Z,50.852848
2022-12-04T15:01:55.584Z,50.852848
2022-12-04T15:02:55.576Z,50.852596
2022-12-04T15:03:55.600Z,50.852566
2022-12-04T15:04:55.918Z,50.852734
2022-12-04T15:05:55.559Z,50.852760
2022-12-04T15:06:59.985Z,50.852871
2022-12-04T15:07:55.580Z,50.852882
2022-12-04T15:08:55.493Z,50.852802
2022-12-04T15:09:55.493Z,50.852737
2022-12-04T15:10:55.472Z,50.852730
2022-12-04T15:11:55.522Z,50.852711
2022-12-04T15:12:55.461Z,50.852711
2022-12-04T15:13:55.598Z,50.852692
2022-12-04T15:14:55.649Z,50.852791
2022-12-04T15:15:55.548Z,50.852665
2022-12-04T15:16:55.446Z,50.852646
2022-12-04T15:17:55.425Z,50.852646
2022-12-04T15:18:55.429Z,50.852646
2022-12-04T15:19:55.472Z,50.852646
2022-12-04T15:20:55.408Z,50.852646
2022-12-04T15:21:55.427Z,50.852646
2022-12-04T15:22:55.407Z,50.852646
2022-12-04T15:23:55.411Z,50.852646
2022-12-04T15:24:55.820Z,50.852646
2022-12-04T15:25:55.387Z,50.852646
2022-12-04T15:26:55.401Z,50.852646
2022-12-04T15:27:55.363Z,50.852646
2022-12-04T15:28:55.365Z,50.852646
2022-12-04T15:29:55.387Z,50.852646
2022-12-04T15:30:55.430Z,50.852646
2022-12-04T15:31:55.354Z,50.852646
2022-12-04T15:32:55.327Z,50.852646
2022-12-04T15:33:55.325Z,50.852646
2022-12-04T15:34:55.671Z,50.852646
2022-12-04T15:35:55.328Z,50.852646
2022-12-04T15:36:55.311Z,50.852646
2022-12-04T15:37:55.370Z,50.852646
2022-12-04T15:38:55.296Z,50.852646
2022-12-04T15:39:55.528Z,50.852646
2022-12-04T15:40:55.269Z,50.852646
2022-12-04T15:41:55.301Z,50.852646
2022-12-04T15:42:55.255Z,50.852646
2022-12-04T15:43:55.280Z,50.852646
2022-12-04T15:44:55.564Z,50.852646
2022-12-04T15:45:55.325Z,50.852646
2022-12-04T15:46:55.410Z,50.852646
2022-12-04T15:47:55.242Z,50.852646
2022-12-04T15:48:55.229Z,50.852646
2022-12-04T15:49:55.570Z,50.852646
2022-12-04T15:50:55.226Z,50.852646
2022-12-04T15:51:55.255Z,50.852879
2022-12-04T15:52:55.196Z,50.852879
2022-12-04T15:53:55.214Z,50.852726
2022-12-04T15:54:55.454Z,50.852798
2022-12-04T15:55:55.184Z,50.852760
2022-12-04T15:56:55.197Z,50.852795
2022-12-04T15:57:55.191Z,50.852726
2022-12-04T15:58:55.154Z,50.852787
2022-12-04T15:59:55.166Z,50.852829
2022-12-04T16:00:55.160Z,50.852821
2022-12-04T16:01:55.202Z,50.852814
2022-12-04T16:02:55.125Z,50.852814
2022-12-04T16:03:55.224Z,50.852814
2022-12-04T16:04:55.125Z,50.852814
2022-12-04T16:05:55.140Z,50.852814
2022-12-04T16:06:55.122Z,50.852814
2022-12-04T16:07:55.169Z,50.852814
2022-12-04T16:08:55.098Z,50.852749
2022-12-04T16:10:01.102Z,50.852699
2022-12-04T16:10:56.092Z,50.852699
2022-12-04T16:11:55.141Z,50.852642
2022-12-04T16:12:55.095Z,50.852642
2022-12-04T16:13:55.081Z,50.852642
2022-12-04T16:14:55.223Z,50.852642
2022-12-04T16:15:55.156Z,50.852642
2022-12-04T16:16:55.058Z,50.852642
2022-12-04T16:17:55.096Z,50.852642
2022-12-04T16:18:55.026Z,50.852642
2022-12-04T16:19:55.026Z,50.852642
2022-12-04T16:20:55.034Z,50.852642
2022-12-04T16:21:55.005Z,50.852642
2022-12-04T16:22:55.044Z,50.852917
2022-12-04T16:23:55.036Z,50.852917
2022-12-04T16:24:55.387Z,50.852917
2022-12-04T16:25:55.013Z,50.852917
2022-12-04T16:26:55.004Z,50.852917
2022-12-04T16:27:54.986Z,50.852917
2022-12-04T16:28:54.998Z,50.852917
2022-12-04T16:29:54.956Z,50.852917
2022-12-04T16:30:55.059Z,50.852917
2022-12-04T16:31:59.676Z,50.852917
2022-12-04T16:32:55.995Z,50.852768
2022-12-04T16:33:54.981Z,50.852768
2022-12-04T16:34:55.401Z,50.852768
2022-12-04T16:35:54.962Z,50.852768
2022-12-04T16:36:54.932Z,50.852768
2022-12-04T16:37:55.009Z,50.852768
2022-12-04T16:38:54.928Z,50.852768
2022-12-04T16:39:54.939Z,50.852768
2022-12-04T16:40:54.911Z,50.852791
2022-12-04T16:41:54.887Z,50.852806
2022-12-04T16:42:54.883Z,50.852806
2022-12-04T16:43:54.865Z,50.852749
2022-12-04T16:44:55.063Z,50.852749
2022-12-04T16:45:54.887Z,50.852718
2022-12-04T16:46:54.941Z,50.852722
2022-12-04T16:47:54.895Z,50.852722
2022-12-04T16:48:54.857Z,50.852722
2022-12-04T16:49:54.881Z,50.852722
2022-12-04T16:50:54.822Z,50.852722
2022-12-04T16:51:54.867Z,50.852703
2022-12-04T16:52:54.815Z,50.852703
2022-12-04T16:53:54.816Z,50.852646
2022-12-04T16:54:55.283Z,50.852676
2022-12-04T16:55:54.798Z,50.852676
2022-12-04T16:56:54.781Z,50.852646
2022-12-04T16:57:54.822Z,50.852646
2022-12-04T16:58:54.789Z,50.852646
2022-12-04T16:59:55.361Z,50.852646
2022-12-04T17:00:54.767Z,50.852757
2022-12-04T17:01:54.882Z,50.852760
2022-12-04T17:02:54.791Z,50.852753
2022-12-04T17:03:54.836Z,50.852749
2022-12-04T17:04:57.777Z,50.852749
2022-12-04T17:05:54.766Z,50.852627
2022-12-04T17:06:54.715Z,50.852638
2022-12-04T17:07:54.900Z,50.852715
2022-12-04T17:08:54.722Z,50.852680
2022-12-04T17:09:54.733Z,50.852806
2022-12-04T17:10:54.700Z,50.852726
2022-12-04T17:11:54.723Z,50.852795
2022-12-04T17:12:54.763Z,50.852806
2022-12-04T17:13:54.717Z,50.852657
2022-12-04T17:14:55.129Z,50.852699
2022-12-04T17:15:54.741Z,50.852699
2022-12-04T17:16:54.756Z,50.852737
2022-12-04T17:17:54.666Z,50.852726
2022-12-04T17:18:54.657Z,50.852684
2022-12-04T17:19:54.688Z,50.852692
2022-12-04T17:20:54.656Z,50.852951
2022-12-04T17:21:54.634Z,50.852951
2022-12-04T17:22:54.648Z,50.852848
2022-12-04T17:23:54.654Z,50.852749
2022-12-04T17:24:56.261Z,50.852718
2022-12-04T17:25:54.622Z,50.852741
2022-12-04T17:26:54.617Z,50.852764
2022-12-04T17:27:54.623Z,50.852795
2022-12-04T17:28:54.604Z,50.852737
2022-12-04T17:29:54.592Z,50.852745
2022-12-04T17:30:54.583Z,50.852768
2022-12-04T17:31:54.605Z,50.852791
2022-12-04T17:32:54.578Z,50.852791
2022-12-04T17:33:54.577Z,50.852791
2022-12-04T17:34:55.111Z,50.852581
2022-12-04T17:35:54.544Z,50.852608
2022-12-04T17:36:54.547Z,50.852554
2022-12-04T17:37:54.541Z,50.852741
2022-12-04T17:38:54.541Z,50.852734
2022-12-04T17:39:54.534Z,50.852776
2022-12-04T17:40:54.511Z,50.852810
2022-12-04T17:41:54.525Z,50.852879
2022-12-04T17:42:54.516Z,50.852875
2022-12-04T17:43:54.482Z,50.852871
2022-12-04T17:44:54.781Z,50.852871
2022-12-04T17:45:54.479Z,50.852871
2022-12-04T17:46:54.560Z,50.852871
2022-12-04T17:47:54.490Z,50.852871
2022-12-04T17:48:54.475Z,50.852871
2022-12-04T17:49:54.476Z,50.852871
2022-12-04T17:50:54.458Z,50.852760
2022-12-04T17:51:54.471Z,50.852783
2022-12-04T17:52:54.459Z,50.852783
2022-12-04T17:53:54.448Z,50.852783
2022-12-04T17:54:54.664Z,50.852783
2022-12-04T17:55:54.427Z,50.852783
2022-12-04T17:56:57.823Z,50.852657
2022-12-04T17:57:54.412Z,50.852757
2022-12-04T17:58:54.429Z,50.852749
2022-12-04T17:59:54.523Z,50.852795
2022-12-04T18:00:54.467Z,50.852779
2022-12-04T18:01:54.420Z,50.852882
2022-12-04T18:02:54.429Z,50.852783
2022-12-04T18:03:54.381Z,50.852764
2022-12-04T18:04:54.692Z,50.852692
2022-12-04T18:05:54.361Z,50.852661
2022-12-04T18:06:54.392Z,50.852718
2022-12-04T18:07:54.414Z,50.852867
2022-12-04T18:08:54.329Z,50.852619
2022-12-04T18:09:54.648Z,50.852749
2022-12-04T18:10:54.334Z,50.852734
2022-12-04T18:11:54.338Z,50.852772
2022-12-04T18:12:54.334Z,50.852783
2022-12-04T18:13:54.317Z,50.852722
2022-12-04T18:14:54.299Z,50.852730
2022-12-04T18:15:54.383Z,50.852699
2022-12-04T18:16:54.350Z,50.852764
2022-12-04T18:17:54.275Z,50.852753
2022-12-04T18:18:54.285Z,50.852692
2022-12-04T18:19:54.608Z,50.852589
2022-12-04T18:20:54.260Z,50.852734
2022-12-04T18:21:54.254Z,50.852722
2022-12-04T18:22:54.252Z,50.852798
2022-12-04T18:23:54.229Z,50.852749
2022-12-04T18:24:54.215Z,50.852753
2022-12-04T18:25:54.249Z,50.852856
2022-12-04T18:26:54.209Z,50.852764
2022-12-04T18:27:54.244Z,50.852825
2022-12-04T18:28:54.197Z,50.852707
2022-12-04T18:29:54.327Z,50.852703
2022-12-04T18:30:54.195Z,50.852718
2022-12-04T18:31:54.392Z,50.852787
2022-12-04T18:32:54.198Z,50.852764
2022-12-04T18:33:54.198Z,50.852665
2022-12-04T18:34:54.166Z,50.852718
2022-12-04T18:35:54.162Z,50.852825
2022-12-04T18:36:54.162Z,50.852852
2022-12-04T18:37:54.220Z,50.852837
2022-12-04T18:38:54.157Z,50.852764
2022-12-04T18:39:54.447Z,50.852688
2022-12-04T18:40:54.124Z,50.852818
2022-12-04T18:41:54.139Z,50.852711
2022-12-04T18:42:54.121Z,50.852833
2022-12-04T18:43:54.097Z,50.852951
2022-12-04T18:44:54.104Z,50.853020
2022-12-04T18:45:54.173Z,50.853020
2022-12-04T18:46:54.079Z,50.852657
2022-12-04T18:47:54.156Z,50.852879
2022-12-04T18:48:54.065Z,50.852837
2022-12-04T18:49:54.348Z,50.852581
2022-12-04T18:50:54.096Z,50.852581
2022-12-04T18:51:54.065Z,50.852604
2022-12-04T18:52:59.937Z,50.852722
2022-12-04T18:53:55.054Z,50.852917
2022-12-04T18:54:54.049Z,50.853035
2022-12-04T18:55:54.055Z,50.853035
2022-12-04T18:56:54.058Z,50.852974
2022-12-04T18:57:54.041Z,50.853077
2022-12-04T18:58:54.037Z,50.853539
2022-12-04T18:59:54.357Z,50.854088
2022-12-04T19:00:54.066Z,50.854321
2022-12-04T19:01:54.073Z,50.854145
2022-12-04T19:02:54.063Z,50.854019
2022-12-04T19:03:53.970Z,50.853916
2022-12-04T19:04:53.993Z,50.853493
2022-12-04T19:05:53.994Z,50.853191
2022-12-04T19:06:53.972Z,50.853043
2022-12-04T19:07:54.007Z,50.853199
2022-12-04T19:08:53.942Z,50.853065
2022-12-04T19:10:53.924Z,50.854633
2022-12-04T19:12:00.968Z,50.854141
2022-12-04T19:12:53.930Z,50.853897
2022-12-04T19:13:53.906Z,50.853897
2022-12-04T19:14:53.955Z,50.853897
2022-12-04T19:15:53.926Z,50.852776
2022-12-04T19:16:53.943Z,50.852654
2022-12-04T19:17:53.906Z,50.852688
2022-12-04T19:18:53.864Z,50.852749
2022-12-04T19:19:54.067Z,50.852772
2022-12-04T19:20:53.858Z,50.852764
2022-12-04T19:21:53.893Z,50.852932
2022-12-04T19:22:53.877Z,50.852787
2022-12-04T19:23:53.843Z,50.852940
2022-12-04T19:24:53.854Z,50.852928
2022-12-04T19:25:53.835Z,50.852722
2022-12-04T19:26:53.823Z,50.852898
2022-12-04T19:27:53.875Z,50.852810
2022-12-04T19:28:53.803Z,50.852829
2022-12-04T19:29:53.885Z,50.852840
2022-12-04T19:30:53.799Z,50.852779
2022-12-04T19:31:59.073Z,50.852737
2022-12-04T19:32:53.837Z,50.852798
2022-12-04T19:33:53.819Z,50.852886
2022-12-04T19:34:53.838Z,50.852943
2022-12-04T19:35:53.763Z,50.852962
2022-12-04T19:36:53.763Z,50.852692
2022-12-04T19:37:53.795Z,50.852722
2022-12-04T19:38:53.764Z,50.852806
2022-12-04T19:39:53.870Z,50.852757
2022-12-04T19:40:53.766Z,50.852695
2022-12-04T19:41:53.740Z,50.852749
2022-12-04T19:42:58.136Z,50.852760
2022-12-04T19:43:54.729Z,50.852913
2022-12-04T19:44:53.708Z,50.852844
2022-12-04T19:45:53.819Z,50.852917
2022-12-04T19:46:53.700Z,50.852722
2022-12-04T19:47:53.701Z,50.852776
2022-12-04T19:48:53.689Z,50.852856
2022-12-04T19:49:53.696Z,50.852764
2022-12-04T19:50:53.671Z,50.852737
2022-12-04T19:51:53.708Z,50.852757
2022-12-04T19:52:53.659Z,50.852699
2022-12-04T19:53:53.654Z,50.852886
2022-12-04T19:54:53.643Z,50.852711
2022-12-04T19:55:53.692Z,50.852818
2022-12-04T19:56:53.645Z,50.852730
2022-12-04T19:57:53.633Z,50.852791
2022-12-04T19:58:53.617Z,50.852798
2022-12-04T19:59:53.592Z,50.852734
2022-12-04T20:00:53.646Z,50.852810
2022-12-04T20:01:53.771Z,50.852776
2022-12-04T20:02:53.652Z,50.852730
2022-12-04T20:03:53.610Z,50.852810
2022-12-04T20:04:53.569Z,50.852737
2022-12-04T20:05:53.571Z,50.852749
2022-12-04T20:06:53.552Z,50.852768
2022-12-04T20:07:53.569Z,50.852787
2022-12-04T20:08:53.553Z,50.852810
2022-12-04T20:09:53.576Z,50.852760
2022-12-04T20:10:53.532Z,50.852848
2022-12-04T20:11:53.545Z,50.852806
2022-12-04T20:12:53.579Z,50.852814
2022-12-04T20:13:53.553Z,50.852791
2022-12-04T20:14:53.495Z,50.852722
2022-12-04T20:15:53.518Z,50.852757
2022-12-04T20:16:53.579Z,50.852718
2022-12-04T20:17:53.498Z,50.852615
2022-12-04T20:18:53.585Z,50.852600
2022-12-04T20:19:53.480Z,50.852646
2022-12-04T20:20:53.472Z,50.852539
2022-12-04T20:21:58.912Z,50.852821
2022-12-04T20:22:54.483Z,50.852882
2022-12-04T20:23:53.481Z,50.852867
2022-12-04T20:24:53.479Z,50.852711
2022-12-04T20:25:53.462Z,50.852543
2022-12-04T20:26:53.450Z,50.852730
2022-12-04T20:27:53.458Z,50.852814
2022-12-04T20:28:53.453Z,50.852753
2022-12-04T20:29:53.563Z,50.852814
2022-12-04T20:30:53.528Z,50.852745
2022-12-04T20:31:53.465Z,50.852840
2022-12-04T20:32:53.407Z,50.852814
2022-12-04T20:33:53.412Z,50.852936
2022-12-04T20:34:53.375Z,50.852745
2022-12-04T20:35:53.364Z,50.852749
2022-12-04T20:36:53.363Z,50.852798
2022-12-04T20:37:53.394Z,50.852726
2022-12-04T20:38:53.354Z,50.852734
2022-12-04T20:39:53.362Z,50.852776
2022-12-04T20:40:53.337Z,50.852726
2022-12-04T20:41:53.369Z,50.852718
2022-12-04T20:42:53.331Z,50.852764
2022-12-04T20:43:53.334Z,50.852695
2022-12-04T20:44:53.341Z,50.852760
2022-12-04T20:45:53.350Z,50.852745
2022-12-04T20:46:53.310Z,50.852715
2022-12-04T20:47:53.364Z,50.852726
2022-12-04T20:48:53.291Z,50.852772
2022-12-04T20:49:53.318Z,50.852814
2022-12-04T20:50:53.319Z,50.852760
2022-12-04T20:51:53.296Z,50.852688
2022-12-04T20:52:53.267Z,50.852760
2022-12-04T20:53:53.297Z,50.852745
2022-12-04T20:54:53.259Z,50.852768
2022-12-04T20:55:53.248Z,50.852764
2022-12-04T20:56:53.485Z,50.852741
2022-12-04T20:57:53.235Z,50.852768
2022-12-04T20:58:53.222Z,50.852783
2022-12-04T20:59:53.222Z,50.852741
2022-12-04T21:00:53.260Z,50.852776
2022-12-04T21:01:53.254Z,50.852745
2022-12-04T21:02:53.280Z,50.852715
2022-12-04T21:03:53.199Z,50.852737
2022-12-04T21:04:53.217Z,50.852840
2022-12-04T21:05:53.189Z,50.852783
2022-12-04T21:06:53.225Z,50.852749
2022-12-04T21:07:53.285Z,50.852798
2022-12-04T21:08:53.192Z,50.852711
2022-12-04T21:09:53.182Z,50.852837
2022-12-04T21:10:53.148Z,50.852871
2022-12-04T21:11:53.135Z,50.852833
2022-12-04T21:12:53.139Z,50.852909
2022-12-04T21:13:53.152Z,50.852837
2022-12-04T21:14:53.122Z,50.852772
2022-12-04T21:15:53.202Z,50.852798
2022-12-04T21:16:53.131Z,50.852749
2022-12-04T21:17:53.119Z,50.852764
2022-12-04T21:18:53.107Z,50.852898
2022-12-04T21:19:53.145Z,50.852940
2022-12-04T21:20:53.071Z,50.853031
2022-12-04T21:21:53.120Z,50.852997
2022-12-04T21:22:53.091Z,50.853085
2022-12-04T21:23:53.056Z,50.853085
2022-12-04T21:24:53.049Z,50.853058
2022-12-04T21:25:53.044Z,50.853058
2022-12-04T21:26:53.026Z,50.852806
2022-12-04T21:27:53.068Z,50.852692
2022-12-04T21:28:53.011Z,50.852783
2022-12-04T21:29:53.041Z,50.852760
2022-12-04T21:30:53.079Z,50.852772
2022-12-04T21:31:53.047Z,50.852905
2022-12-04T21:32:53.011Z,50.852829
2022-12-04T21:33:53.013Z,50.852898
2022-12-04T21:34:52.969Z,50.852867
2022-12-04T21:35:52.987Z,50.852913
2022-12-04T21:36:53.042Z,50.853077
2022-12-04T21:37:52.962Z,50.852703
2022-12-04T21:38:52.996Z,50.852943
2022-12-04T21:39:52.952Z,50.852848
2022-12-04T21:40:52.942Z,50.852287
2022-12-04T21:41:52.947Z,50.852425
2022-12-04T21:42:52.945Z,50.852718
2022-12-04T21:43:52.929Z,50.852959
2022-12-04T21:44:52.933Z,50.852921
2022-12-04T21:45:52.946Z,50.852924
2022-12-04T21:46:52.992Z,50.852806
2022-12-04T21:47:52.916Z,50.852787
2022-12-04T21:48:52.892Z,50.852737
2022-12-04T21:49:52.915Z,50.852695
2022-12-04T21:50:52.879Z,50.852783
2022-12-04T21:51:57.721Z,50.852699
2022-12-04T21:52:53.865Z,50.852592
2022-12-04T21:53:52.849Z,50.852638
2022-12-04T21:54:52.849Z,50.852650
2022-12-04T21:55:52.865Z,50.852699
2022-12-04T21:56:52.847Z,50.852638
2022-12-04T21:57:52.825Z,50.852699
2022-12-04T21:58:52.818Z,50.852776
2022-12-04T21:59:52.853Z,50.852760
2022-12-04T22:00:52.838Z,50.852741
2022-12-04T22:01:52.945Z,50.852768
2022-12-04T22:02:52.885Z,50.852703
2022-12-04T22:03:52.790Z,50.852764
2022-12-04T22:04:52.778Z,50.852661
2022-12-04T22:05:52.781Z,50.852757
2022-12-04T22:06:52.797Z,50.852745
2022-12-04T22:07:52.805Z,50.852791
2022-12-04T22:08:52.752Z,50.852638
2022-12-04T22:09:52.738Z,50.852688
2022-12-04T22:10:52.737Z,50.852734
2022-12-04T22:11:52.741Z,50.852654
2022-12-04T22:12:52.772Z,50.852703
2022-12-04T22:13:52.732Z,50.852760
2022-12-04T22:14:52.746Z,50.852688
2022-12-04T22:15:52.776Z,50.852638
2022-12-04T22:16:52.757Z,50.852688
2022-12-04T22:17:52.713Z,50.852779
2022-12-04T22:18:52.684Z,50.852718
2022-12-04T22:19:52.677Z,50.852604
2022-12-04T22:20:52.698Z,50.852718
2022-12-04T22:21:52.707Z,50.852741
2022-12-04T22:22:52.688Z,50.852661
2022-12-04T22:23:52.689Z,50.852734
2022-12-04T22:24:52.683Z,50.852726
2022-12-04T22:25:52.649Z,50.852695
2022-12-04T22:26:52.704Z,50.852669
2022-12-04T22:27:52.625Z,50.852665
2022-12-04T22:28:52.631Z,50.852650
2022-12-04T22:29:52.636Z,50.852688
2022-12-04T22:30:52.652Z,50.852673
2022-12-04T22:31:52.742Z,50.852654
2022-12-04T22:32:52.599Z,50.852760
2022-12-04T22:33:52.603Z,50.852734
2022-12-04T22:34:52.584Z,50.852650
2022-12-04T22:35:52.587Z,50.852703
2022-12-04T22:36:52.594Z,50.852657
2022-12-04T22:37:52.568Z,50.852695
2022-12-04T22:39:11.499Z,50.852699
2022-12-04T22:39:53.585Z,50.852802
2022-12-04T22:40:52.537Z,50.852745
2022-12-04T22:41:52.595Z,50.852730
2022-12-04T22:42:52.547Z,50.852692
2022-12-04T22:43:52.535Z,50.852688
2022-12-04T22:44:52.525Z,50.852730
2022-12-04T22:45:52.505Z,50.852745
2022-12-04T22:46:52.608Z,50.852760
2022-12-04T22:47:52.498Z,50.852764
2022-12-04T22:48:52.485Z,50.852791
2022-12-04T22:49:52.493Z,50.852772
2022-12-04T22:50:52.493Z,50.852791
2022-12-04T22:51:52.494Z,50.852802
2022-12-04T22:52:52.499Z,50.852802
2022-12-04T22:53:52.455Z,50.852818
2022-12-04T22:54:52.459Z,50.852833
2022-12-04T22:55:52.449Z,50.852749
2022-12-04T22:56:52.440Z,50.852737
2022-12-04T22:57:52.434Z,50.852787
2022-12-04T22:58:52.460Z,50.852840
2022-12-04T22:59:52.421Z,50.852711
2022-12-04T23:00:52.415Z,50.852829
2022-12-04T23:01:52.417Z,50.852840
2022-12-04T23:02:52.462Z,50.852818
2022-12-04T23:03:52.407Z,50.852898
2022-12-04T23:04:52.453Z,50.852852
2022-12-04T23:05:52.400Z,50.852772
2022-12-04T23:06:52.398Z,50.852821
2022-12-04T23:07:52.488Z,50.852802
2022-12-04T23:08:52.369Z,50.852875
2022-12-04T23:09:52.359Z,50.852760
2022-12-04T23:10:52.352Z,50.852776
2022-12-04T23:11:52.335Z,50.852833
2022-12-04T23:12:52.377Z,50.852814
2022-12-04T23:13:52.328Z,50.852829
2022-12-04T23:14:52.331Z,50.852837
2022-12-04T23:15:52.361Z,50.852848
2022-12-04T23:16:52.365Z,50.852833
2022-12-04T23:17:52.296Z,50.852821
2022-12-04T23:18:52.304Z,50.852852
2022-12-04T23:19:52.315Z,50.852818
2022-12-04T23:20:52.280Z,50.852840
2022-12-04T23:21:56.842Z,50.852810
2022-12-04T23:22:53.262Z,50.852798
2022-12-04T23:23:52.279Z,50.852917
2022-12-04T23:24:52.321Z,50.852852
2022-12-04T23:25:52.265Z,50.852810
2022-12-04T23:26:52.237Z,50.852844
2022-12-04T23:27:52.230Z,50.852844
2022-12-04T23:28:52.223Z,50.852814
2022-12-04T23:29:53.681Z,50.852791
2022-12-04T23:30:52.243Z,50.852806
2022-12-04T23:31:52.245Z,50.852905
2022-12-04T23:32:52.192Z,50.852863
2022-12-04T23:33:52.220Z,50.852825
2022-12-04T23:34:52.190Z,50.852871
2022-12-04T23:35:52.195Z,50.852833
2022-12-04T23:36:52.180Z,50.852886
2022-12-04T23:37:52.214Z,50.852787
2022-12-04T23:38:52.177Z,50.852810
2022-12-04T23:39:52.161Z,50.852795
2022-12-04T23:40:52.178Z,50.852787
2022-12-04T23:41:52.161Z,50.852921
2022-12-04T23:42:52.141Z,50.852909
2022-12-04T23:43:52.159Z,50.852829
2022-12-04T23:44:52.144Z,50.852791
2022-12-04T23:45:52.137Z,50.852879
2022-12-04T23:46:52.160Z,50.852814
2022-12-04T23:47:52.122Z,50.852798
2022-12-04T23:48:52.103Z,50.852852
2022-12-04T23:49:52.101Z,50.852840
2022-12-04T23:50:52.085Z,50.852833
2022-12-04T23:51:52.099Z,50.852848
2022-12-04T23:52:52.118Z,50.852859
2022-12-04T23:53:52.082Z,50.852802
2022-12-04T23:54:52.066Z,50.852757
2022-12-04T23:55:52.053Z,50.852844
2022-12-04T23:56:52.047Z,50.852821
2022-12-04T23:57:52.070Z,50.852852
2022-12-04T23:58:52.034Z,50.852825
2022-12-04T23:59:52.041Z,50.852795
